sensor_id;sensor_type;location;lat;lon;timestamp;P1;durP1;ratioP1;P2;durP2;ratioP2
31974;SDS011;18500;43.618;1.474;2023-06-10T08:40:28;779.70;;;727.00;;
31974;SDS011;18500;43.618;1.474;2023-06-10T08:43:04;750.05;;;699.38;;
31974;SDS011;18500;43.618;1.474;2023-06-10T08:45:32;786.50;;;730.88;;
31974;SDS011;18500;43.618;1.474;2023-06-10T08:48:00;752.97;;;700.58;;
31974;SDS011;18500;43.618;1.474;2023-06-10T08:50:34;790.38;;;735.35;;
31974;SDS011;18500;43.618;1.474;2023-06-10T08:53:01;799.78;;;744.83;;
31974;SDS011;18500;43.618;1.474;2023-06-10T08:55:35;758.03;;;704.75;;
31974;SDS011;18500;43.618;1.474;2023-06-10T08:58:03;729.28;;;678.92;;
31974;SDS011;18500;43.618;1.474;2023-06-10T09:00:29;698.83;;;650.38;;
31974;SDS011;18500;43.618;1.474;2023-06-10T09:02:56;709.88;;;662.22;;
31974;SDS011;18500;43.618;1.474;2023-06-10T09:05:23;737.03;;;684.60;;
31974;SDS011;18500;43.618;1.474;2023-06-10T09:07:49;677.72;;;632.42;;
31974;SDS011;18500;43.618;1.474;2023-06-10T09:10:16;688.22;;;641.10;;
31974;SDS011;18500;43.618;1.474;2023-06-10T09:12:42;737.45;;;684.85;;
31974;SDS011;18500;43.618;1.474;2023-06-10T09:15:08;675.30;;;629.10;;
31974;SDS011;18500;43.618;1.474;2023-06-10T09:17:34;692.45;;;646.90;;
31974;SDS011;18500;43.618;1.474;2023-06-10T09:20:02;620.55;;;581.53;;
31974;SDS011;18500;43.618;1.474;2023-06-10T09:22:28;666.47;;;622.97;;
31974;SDS011;18500;43.618;1.474;2023-06-10T09:25:03;717.03;;;669.45;;
31974;SDS011;18500;43.618;1.474;2023-06-10T09:27:43;666.00;;;621.65;;
31974;SDS011;18500;43.618;1.474;2023-06-10T09:30:34;696.45;;;650.13;;
31974;SDS011;18500;43.618;1.474;2023-06-10T09:33:00;712.67;;;662.50;;
31974;SDS011;18500;43.618;1.474;2023-06-10T09:35:28;555.03;;;519.13;;
31974;SDS011;18500;43.618;1.474;2023-06-10T09:37:59;625.85;;;583.60;;
31974;SDS011;18500;43.618;1.474;2023-06-10T09:40:25;464.90;;;436.27;;
31974;SDS011;18500;43.618;1.474;2023-06-10T09:42:56;601.35;;;561.35;;
31974;SDS011;18500;43.618;1.474;2023-06-10T09:45:24;699.23;;;650.13;;
31974;SDS011;18500;43.618;1.474;2023-06-10T09:47:58;740.80;;;688.75;;
31974;SDS011;18500;43.618;1.474;2023-06-10T09:50:24;728.85;;;677.35;;
31974;SDS011;18500;43.618;1.474;2023-06-10T09:52:51;666.28;;;621.92;;
31974;SDS011;18500;43.618;1.474;2023-06-10T09:55:17;688.28;;;637.45;;
31974;SDS011;18500;43.618;1.474;2023-06-10T09:57:43;569.40;;;531.80;;
31974;SDS011;18500;43.618;1.474;2023-06-10T10:00:13;670.38;;;624.03;;
31974;SDS011;18500;43.618;1.474;2023-06-10T10:02:46;621.80;;;579.60;;
31974;SDS011;18500;43.618;1.474;2023-06-10T10:05:13;672.83;;;626.13;;
31974;SDS011;18500;43.618;1.474;2023-06-10T10:07:40;604.85;;;564.42;;
31974;SDS011;18500;43.618;1.474;2023-06-10T10:10:07;476.50;;;445.02;;
31974;SDS011;18500;43.618;1.474;2023-06-10T10:12:34;438.60;;;408.33;;
31974;SDS011;18500;43.618;1.474;2023-06-10T10:15:02;438.73;;;410.05;;
31974;SDS011;18500;43.618;1.474;2023-06-10T10:17:32;486.38;;;453.73;;
31974;SDS011;18500;43.618;1.474;2023-06-10T10:20:03;499.77;;;465.73;;
31974;SDS011;18500;43.618;1.474;2023-06-10T10:22:35;537.65;;;501.98;;
31974;SDS011;18500;43.618;1.474;2023-06-10T10:25:05;578.42;;;537.70;;
31974;SDS011;18500;43.618;1.474;2023-06-10T10:30:30;406.40;;;381.02;;
31974;SDS011;18500;43.618;1.474;2023-06-10T10:33:09;487.88;;;456.75;;
31974;SDS011;18500;43.618;1.474;2023-06-10T10:35:41;522.17;;;489.08;;
31974;SDS011;18500;43.618;1.474;2023-06-10T10:38:08;484.42;;;453.00;;
31974;SDS011;18500;43.618;1.474;2023-06-10T10:40:35;412.65;;;388.02;;
31974;SDS011;18500;43.618;1.474;2023-06-10T10:43:02;766.30;;;710.90;;
31974;SDS011;18500;43.618;1.474;2023-06-10T10:45:30;747.03;;;693.55;;
31974;SDS011;18500;43.618;1.474;2023-06-10T10:47:58;559.63;;;521.35;;
31974;SDS011;18500;43.618;1.474;2023-06-10T10:50:36;418.55;;;392.23;;
31974;SDS011;18500;43.618;1.474;2023-06-10T10:53:03;320.88;;;301.70;;
31974;SDS011;18500;43.618;1.474;2023-06-10T10:55:30;333.23;;;312.10;;
31974;SDS011;18500;43.618;1.474;2023-06-10T11:00:35;483.60;;;451.35;;
31974;SDS011;18500;43.618;1.474;2023-06-10T11:05:36;777.55;;;718.30;;
31974;SDS011;18500;43.618;1.474;2023-06-10T11:08:07;551.95;;;510.85;;
31974;SDS011;18500;43.618;1.474;2023-06-10T11:10:34;590.83;;;547.42;;
31974;SDS011;18500;43.618;1.474;2023-06-10T11:13:04;479.52;;;444.13;;
31974;SDS011;18500;43.618;1.474;2023-06-10T11:15:38;875.08;;;807.33;;
31974;SDS011;18500;43.618;1.474;2023-06-10T11:20:44;1009.25;;;918.35;;
31974;SDS011;18500;43.618;1.474;2023-06-10T11:23:10;724.40;;;669.75;;
31974;SDS011;18500;43.618;1.474;2023-06-10T11:25:49;1088.13;;;980.53;;
31974;SDS011;18500;43.618;1.474;2023-06-10T11:28:18;1148.82;;;999.90;;
31974;SDS011;18500;43.618;1.474;2023-06-10T11:30:44;1437.80;;;999.90;;
31974;SDS011;18500;43.618;1.474;2023-06-10T11:33:16;1488.82;;;999.90;;
31974;SDS011;18500;43.618;1.474;2023-06-10T11:35:42;1309.00;;;999.90;;
31974;SDS011;18500;43.618;1.474;2023-06-10T11:38:08;1493.80;;;999.90;;
31974;SDS011;18500;43.618;1.474;2023-06-10T11:40:34;1664.78;;;999.90;;
31974;SDS011;18500;43.618;1.474;2023-06-10T11:43:03;1977.22;;;999.90;;
31974;SDS011;18500;43.618;1.474;2023-06-10T11:45:29;1647.35;;;999.90;;
31974;SDS011;18500;43.618;1.474;2023-06-10T11:47:55;1657.10;;;999.90;;
31974;SDS011;18500;43.618;1.474;2023-06-10T11:50:31;1871.05;;;999.90;;
31974;SDS011;18500;43.618;1.474;2023-06-10T11:52:58;1040.20;;;941.50;;
31974;SDS011;18500;43.618;1.474;2023-06-10T11:55:25;1342.07;;;999.90;;
31974;SDS011;18500;43.618;1.474;2023-06-10T11:57:51;1305.30;;;999.90;;
31974;SDS011;18500;43.618;1.474;2023-06-10T12:00:22;1416.72;;;999.90;;
31974;SDS011;18500;43.618;1.474;2023-06-10T12:02:59;1049.65;;;940.25;;
31974;SDS011;18500;43.618;1.474;2023-06-10T12:05:24;1035.80;;;933.20;;
31974;SDS011;18500;43.618;1.474;2023-06-10T12:08:05;945.80;;;856.10;;
31974;SDS011;18500;43.618;1.474;2023-06-10T12:10:40;620.17;;;570.85;;
31974;SDS011;18500;43.618;1.474;2023-06-10T12:13:10;708.92;;;655.35;;
31974;SDS011;18500;43.618;1.474;2023-06-10T12:15:36;666.13;;;614.80;;
31974;SDS011;18500;43.618;1.474;2023-06-10T12:18:02;560.08;;;520.80;;
31974;SDS011;18500;43.618;1.474;2023-06-10T12:20:29;880.88;;;812.63;;
31974;SDS011;18500;43.618;1.474;2023-06-10T12:22:57;789.42;;;715.30;;
31974;SDS011;18500;43.618;1.474;2023-06-10T12:25:27;623.50;;;580.95;;
31974;SDS011;18500;43.618;1.474;2023-06-10T12:27:55;1279.47;;;999.90;;
31974;SDS011;18500;43.618;1.474;2023-06-10T12:30:23;1019.42;;;912.47;;
31974;SDS011;18500;43.618;1.474;2023-06-10T12:32:50;947.05;;;870.70;;
31974;SDS011;18500;43.618;1.474;2023-06-10T12:35:17;595.20;;;554.00;;
31974;SDS011;18500;43.618;1.474;2023-06-10T12:40:28;748.20;;;695.22;;
31974;SDS011;18500;43.618;1.474;2023-06-10T12:42:56;901.72;;;829.00;;
31974;SDS011;18500;43.618;1.474;2023-06-10T12:45:30;794.97;;;736.10;;
31974;SDS011;18500;43.618;1.474;2023-06-10T12:48:10;864.25;;;796.38;;
31974;SDS011;18500;43.618;1.474;2023-06-10T12:50:39;748.58;;;694.67;;
31974;SDS011;18500;43.618;1.474;2023-06-10T12:53:07;727.20;;;674.55;;
31974;SDS011;18500;43.618;1.474;2023-06-10T12:55:33;738.10;;;683.85;;
31974;SDS011;18500;43.618;1.474;2023-06-10T12:58:00;729.67;;;675.78;;
31974;SDS011;18500;43.618;1.474;2023-06-10T13:00:26;749.53;;;694.20;;
31974;SDS011;18500;43.618;1.474;2023-06-10T13:02:55;788.38;;;729.38;;
31974;SDS011;18500;43.618;1.474;2023-06-10T13:05:21;846.53;;;780.38;;
31974;SDS011;18500;43.618;1.474;2023-06-10T13:07:47;801.67;;;741.30;;
31974;SDS011;18500;43.618;1.474;2023-06-10T13:10:16;950.90;;;873.75;;
31974;SDS011;18500;43.618;1.474;2023-06-10T13:12:43;865.55;;;795.15;;
31974;SDS011;18500;43.618;1.474;2023-06-10T13:15:09;876.78;;;808.60;;
31974;SDS011;18500;43.618;1.474;2023-06-10T13:17:36;911.55;;;837.05;;
31974;SDS011;18500;43.618;1.474;2023-06-10T13:20:03;881.63;;;813.88;;
31974;SDS011;18500;43.618;1.474;2023-06-10T13:22:32;993.53;;;908.83;;
31974;SDS011;18500;43.618;1.474;2023-06-10T13:25:00;1044.88;;;949.08;;
31974;SDS011;18500;43.618;1.474;2023-06-10T13:27:26;1035.68;;;940.90;;
31974;SDS011;18500;43.618;1.474;2023-06-10T13:29:52;1049.22;;;950.15;;
31974;SDS011;18500;43.618;1.474;2023-06-10T13:32:18;1016.53;;;923.13;;
31974;SDS011;18500;43.618;1.474;2023-06-10T13:34:44;1013.53;;;923.42;;
31974;SDS011;18500;43.618;1.474;2023-06-10T13:37:10;1016.78;;;922.97;;
31974;SDS011;18500;43.618;1.474;2023-06-10T13:39:37;983.20;;;896.15;;
31974;SDS011;18500;43.618;1.474;2023-06-10T13:42:03;1023.22;;;928.00;;
31974;SDS011;18500;43.618;1.474;2023-06-10T13:44:29;990.17;;;897.83;;
31974;SDS011;18500;43.618;1.474;2023-06-10T13:46:58;1028.57;;;929.80;;
31974;SDS011;18500;43.618;1.474;2023-06-10T13:49:24;1032.82;;;932.97;;
31974;SDS011;18500;43.618;1.474;2023-06-10T13:51:50;1064.65;;;957.90;;
31974;SDS011;18500;43.618;1.474;2023-06-10T13:54:15;1057.90;;;955.47;;
31974;SDS011;18500;43.618;1.474;2023-06-10T13:56:41;1082.30;;;968.97;;
31974;SDS011;18500;43.618;1.474;2023-06-10T13:59:07;1089.55;;;975.20;;
31974;SDS011;18500;43.618;1.474;2023-06-10T14:01:33;1098.95;;;979.53;;
31974;SDS011;18500;43.618;1.474;2023-06-10T14:03:59;1222.35;;;999.90;;
31974;SDS011;18500;43.618;1.474;2023-06-10T14:06:25;1101.82;;;981.28;;
31974;SDS011;18500;43.618;1.474;2023-06-10T14:08:51;1107.88;;;983.75;;
31974;SDS011;18500;43.618;1.474;2023-06-10T14:11:19;1100.63;;;979.92;;
31974;SDS011;18500;43.618;1.474;2023-06-10T14:13:46;1019.35;;;923.55;;
31974;SDS011;18500;43.618;1.474;2023-06-10T14:16:11;891.10;;;817.00;;
31974;SDS011;18500;43.618;1.474;2023-06-10T14:18:37;644.30;;;601.15;;
31974;SDS011;18500;43.618;1.474;2023-06-10T14:21:03;542.05;;;508.25;;
31974;SDS011;18500;43.618;1.474;2023-06-10T14:23:28;646.58;;;604.10;;
31974;SDS011;18500;43.618;1.474;2023-06-10T14:25:54;664.88;;;619.47;;
31974;SDS011;18500;43.618;1.474;2023-06-10T14:28:20;706.53;;;658.22;;
31974;SDS011;18500;43.618;1.474;2023-06-10T14:30:45;727.92;;;678.17;;
31974;SDS011;18500;43.618;1.474;2023-06-10T14:33:11;722.75;;;672.72;;
31974;SDS011;18500;43.618;1.474;2023-06-10T14:35:37;741.80;;;691.13;;
31974;SDS011;18500;43.618;1.474;2023-06-10T14:38:02;742.63;;;691.97;;
31974;SDS011;18500;43.618;1.474;2023-06-10T14:40:29;908.22;;;837.17;;
31974;SDS011;18500;43.618;1.474;2023-06-10T14:42:55;908.67;;;836.70;;
31974;SDS011;18500;43.618;1.474;2023-06-10T14:45:21;916.67;;;838.80;;
31974;SDS011;18500;43.618;1.474;2023-06-10T14:47:46;922.55;;;845.20;;
31974;SDS011;18500;43.618;1.474;2023-06-10T14:50:13;941.70;;;861.88;;
31974;SDS011;18500;43.618;1.474;2023-06-10T14:52:39;706.15;;;658.25;;
31974;SDS011;18500;43.618;1.474;2023-06-10T14:55:05;564.88;;;529.88;;
31974;SDS011;18500;43.618;1.474;2023-06-10T14:57:31;609.45;;;570.35;;
31974;SDS011;18500;43.618;1.474;2023-06-10T14:59:57;625.78;;;584.67;;
31974;SDS011;18500;43.618;1.474;2023-06-10T15:02:23;652.17;;;609.28;;
31974;SDS011;18500;43.618;1.474;2023-06-10T15:04:48;786.20;;;727.97;;
31974;SDS011;18500;43.618;1.474;2023-06-10T15:07:14;979.55;;;893.17;;
31974;SDS011;18500;43.618;1.474;2023-06-10T15:09:40;1071.68;;;964.92;;
31974;SDS011;18500;43.618;1.474;2023-06-10T15:12:07;1147.03;;;999.90;;
31974;SDS011;18500;43.618;1.474;2023-06-10T15:14:33;1084.13;;;975.05;;
31974;SDS011;18500;43.618;1.474;2023-06-10T15:16:59;1129.18;;;998.75;;
31974;SDS011;18500;43.618;1.474;2023-06-10T15:19:25;699.47;;;645.85;;
31974;SDS011;18500;43.618;1.474;2023-06-10T15:21:51;674.13;;;622.85;;
31974;SDS011;18500;43.618;1.474;2023-06-10T15:24:17;538.53;;;502.08;;
31974;SDS011;18500;43.618;1.474;2023-06-10T15:26:43;689.35;;;638.67;;
31974;SDS011;18500;43.618;1.474;2023-06-10T15:29:09;564.78;;;525.63;;
31974;SDS011;18500;43.618;1.474;2023-06-10T15:31:35;821.38;;;760.05;;
31974;SDS011;18500;43.618;1.474;2023-06-10T15:34:01;798.90;;;740.25;;
31974;SDS011;18500;43.618;1.474;2023-06-10T15:36:27;917.03;;;842.95;;
31974;SDS011;18500;43.618;1.474;2023-06-10T15:38:53;1064.15;;;950.20;;
31974;SDS011;18500;43.618;1.474;2023-06-10T15:41:19;933.97;;;858.50;;
31974;SDS011;18500;43.618;1.474;2023-06-10T15:43:45;869.97;;;803.75;;
31974;SDS011;18500;43.618;1.474;2023-06-10T15:46:11;1025.07;;;924.67;;
31974;SDS011;18500;43.618;1.474;2023-06-10T15:48:37;1087.50;;;975.08;;
31974;SDS011;18500;43.618;1.474;2023-06-10T15:51:02;1105.75;;;985.85;;
31974;SDS011;18500;43.618;1.474;2023-06-10T15:53:28;933.85;;;857.15;;
31974;SDS011;18500;43.618;1.474;2023-06-10T15:55:54;1058.22;;;955.38;;
31974;SDS011;18500;43.618;1.474;2023-06-10T15:58:19;896.20;;;824.75;;
31974;SDS011;18500;43.618;1.474;2023-06-10T16:00:45;1285.80;;;992.13;;
31974;SDS011;18500;43.618;1.474;2023-06-10T16:03:11;1281.18;;;999.90;;
31974;SDS011;18500;43.618;1.474;2023-06-10T16:05:36;1409.35;;;999.90;;
31974;SDS011;18500;43.618;1.474;2023-06-10T16:08:02;1460.72;;;999.90;;
31974;SDS011;18500;43.618;1.474;2023-06-10T16:10:28;1476.57;;;999.90;;
31974;SDS011;18500;43.618;1.474;2023-06-10T16:12:53;1340.13;;;999.90;;
31974;SDS011;18500;43.618;1.474;2023-06-10T16:15:19;1495.50;;;999.90;;
31974;SDS011;18500;43.618;1.474;2023-06-10T16:17:45;1610.28;;;999.90;;
31974;SDS011;18500;43.618;1.474;2023-06-10T16:20:11;1626.45;;;999.90;;
31974;SDS011;18500;43.618;1.474;2023-06-10T16:22:37;1579.63;;;999.90;;
31974;SDS011;18500;43.618;1.474;2023-06-10T16:25:03;1648.72;;;999.90;;
31974;SDS011;18500;43.618;1.474;2023-06-10T16:27:29;1467.43;;;999.90;;
31974;SDS011;18500;43.618;1.474;2023-06-10T16:29:54;1447.05;;;999.90;;
31974;SDS011;18500;43.618;1.474;2023-06-10T16:32:20;1560.35;;;999.90;;
31974;SDS011;18500;43.618;1.474;2023-06-10T16:34:45;1666.82;;;999.90;;
31974;SDS011;18500;43.618;1.474;2023-06-10T16:37:11;1742.72;;;999.90;;
31974;SDS011;18500;43.618;1.474;2023-06-10T16:39:37;1752.55;;;999.90;;
31974;SDS011;18500;43.618;1.474;2023-06-10T16:42:03;1508.97;;;999.90;;
31974;SDS011;18500;43.618;1.474;2023-06-10T16:44:29;1631.63;;;999.90;;
31974;SDS011;18500;43.618;1.474;2023-06-10T16:46:55;1042.22;;;936.85;;
31974;SDS011;18500;43.618;1.474;2023-06-10T16:49:21;993.28;;;896.40;;
31974;SDS011;18500;43.618;1.474;2023-06-10T16:51:47;1039.22;;;937.97;;
31974;SDS011;18500;43.618;1.474;2023-06-10T16:54:12;1565.47;;;999.90;;
31974;SDS011;18500;43.618;1.474;2023-06-10T16:56:38;1660.57;;;999.90;;
31974;SDS011;18500;43.618;1.474;2023-06-10T16:59:04;1395.47;;;999.90;;
31974;SDS011;18500;43.618;1.474;2023-06-10T17:01:30;1287.68;;;999.90;;
31974;SDS011;18500;43.618;1.474;2023-06-10T17:03:56;1044.00;;;939.40;;
31974;SDS011;18500;43.618;1.474;2023-06-10T17:06:22;1199.80;;;997.95;;
31974;SDS011;18500;43.618;1.474;2023-06-10T17:08:47;1359.30;;;999.90;;
31974;SDS011;18500;43.618;1.474;2023-06-10T17:11:13;1673.07;;;999.90;;
31974;SDS011;18500;43.618;1.474;2023-06-10T17:13:38;1677.03;;;999.90;;
31974;SDS011;18500;43.618;1.474;2023-06-10T17:16:04;1480.32;;;999.90;;
31974;SDS011;18500;43.618;1.474;2023-06-10T17:18:30;1123.45;;;958.47;;
31974;SDS011;18500;43.618;1.474;2023-06-10T17:20:56;1300.57;;;999.90;;
31974;SDS011;18500;43.618;1.474;2023-06-10T17:23:22;975.80;;;883.67;;
31974;SDS011;18500;43.618;1.474;2023-06-10T17:25:48;1174.13;;;987.42;;
31974;SDS011;18500;43.618;1.474;2023-06-10T17:28:14;1612.38;;;999.90;;
31974;SDS011;18500;43.618;1.474;2023-06-10T17:30:39;1525.00;;;999.90;;
31974;SDS011;18500;43.618;1.474;2023-06-10T17:33:05;1674.70;;;999.90;;
31974;SDS011;18500;43.618;1.474;2023-06-10T17:35:31;1679.75;;;999.90;;
31974;SDS011;18500;43.618;1.474;2023-06-10T17:37:56;1664.40;;;999.90;;
31974;SDS011;18500;43.618;1.474;2023-06-10T17:40:22;1273.20;;;992.85;;
31974;SDS011;18500;43.618;1.474;2023-06-10T17:42:48;1022.75;;;915.55;;
31974;SDS011;18500;43.618;1.474;2023-06-10T17:45:14;1034.53;;;924.35;;
31974;SDS011;18500;43.618;1.474;2023-06-10T17:47:40;1505.45;;;999.90;;
31974;SDS011;18500;43.618;1.474;2023-06-10T17:50:06;1140.80;;;954.08;;
31974;SDS011;18500;43.618;1.474;2023-06-10T17:52:32;1495.53;;;999.90;;
31974;SDS011;18500;43.618;1.474;2023-06-10T17:54:58;1426.63;;;999.90;;
31974;SDS011;18500;43.618;1.474;2023-06-10T17:57:24;1591.03;;;999.90;;
31974;SDS011;18500;43.618;1.474;2023-06-10T17:59:50;1485.63;;;999.90;;
31974;SDS011;18500;43.618;1.474;2023-06-10T18:02:16;1538.63;;;999.90;;
31974;SDS011;18500;43.618;1.474;2023-06-10T18:04:41;1676.97;;;999.90;;
31974;SDS011;18500;43.618;1.474;2023-06-10T18:07:07;1642.25;;;999.90;;
31974;SDS011;18500;43.618;1.474;2023-06-10T18:09:33;1623.07;;;999.90;;
31974;SDS011;18500;43.618;1.474;2023-06-10T18:11:58;1617.95;;;999.90;;
31974;SDS011;18500;43.618;1.474;2023-06-10T18:14:24;1554.30;;;999.90;;
31974;SDS011;18500;43.618;1.474;2023-06-10T18:16:49;1405.82;;;999.90;;
31974;SDS011;18500;43.618;1.474;2023-06-10T18:19:15;1242.45;;;999.90;;
31974;SDS011;18500;43.618;1.474;2023-06-10T18:21:41;1370.82;;;999.90;;
31974;SDS011;18500;43.618;1.474;2023-06-10T18:24:07;1110.75;;;993.85;;
31974;SDS011;18500;43.618;1.474;2023-06-10T18:26:33;1236.05;;;999.90;;
31974;SDS011;18500;43.618;1.474;2023-06-10T18:28:58;1094.68;;;983.35;;
31974;SDS011;18500;43.618;1.474;2023-06-10T18:31:24;1083.65;;;975.05;;
31974;SDS011;18500;43.618;1.474;2023-06-10T18:33:50;899.15;;;819.88;;
31974;SDS011;18500;43.618;1.474;2023-06-10T18:36:15;970.10;;;882.20;;
31974;SDS011;18500;43.618;1.474;2023-06-10T18:38:41;856.47;;;784.30;;
31974;SDS011;18500;43.618;1.474;2023-06-10T18:41:07;879.95;;;805.85;;
31974;SDS011;18500;43.618;1.474;2023-06-10T18:43:32;1013.13;;;924.55;;
31974;SDS011;18500;43.618;1.474;2023-06-10T18:45:59;911.55;;;836.47;;
31974;SDS011;18500;43.618;1.474;2023-06-10T18:48:25;1035.68;;;946.22;;
31974;SDS011;18500;43.618;1.474;2023-06-10T18:50:51;1042.35;;;951.30;;
31974;SDS011;18500;43.618;1.474;2023-06-10T18:53:16;1042.70;;;952.45;;
31974;SDS011;18500;43.618;1.474;2023-06-10T18:55:42;890.95;;;818.97;;
31974;SDS011;18500;43.618;1.474;2023-06-10T18:58:08;890.38;;;813.67;;
31974;SDS011;18500;43.618;1.474;2023-06-10T19:00:33;927.95;;;843.75;;
31974;SDS011;18500;43.618;1.474;2023-06-10T19:02:59;933.13;;;848.88;;
31974;SDS011;18500;43.618;1.474;2023-06-10T19:05:25;921.95;;;841.03;;
31974;SDS011;18500;43.618;1.474;2023-06-10T19:07:51;907.15;;;828.10;;
31974;SDS011;18500;43.618;1.474;2023-06-10T19:10:17;879.25;;;802.03;;
31974;SDS011;18500;43.618;1.474;2023-06-10T19:12:43;898.28;;;822.63;;
31974;SDS011;18500;43.618;1.474;2023-06-10T19:15:09;902.25;;;821.72;;
31974;SDS011;18500;43.618;1.474;2023-06-10T19:17:35;822.20;;;753.40;;
31974;SDS011;18500;43.618;1.474;2023-06-10T19:20:01;806.20;;;740.22;;
31974;SDS011;18500;43.618;1.474;2023-06-10T19:22:28;869.38;;;798.80;;
31974;SDS011;18500;43.618;1.474;2023-06-10T19:25:00;794.08;;;730.45;;
31974;SDS011;18500;43.618;1.474;2023-06-10T19:27:27;708.47;;;652.20;;
31974;SDS011;18500;43.618;1.474;2023-06-10T19:29:54;723.75;;;668.50;;
31974;SDS011;18500;43.618;1.474;2023-06-10T19:32:22;683.70;;;632.53;;
31974;SDS011;18500;43.618;1.474;2023-06-10T19:34:48;704.90;;;650.95;;
31974;SDS011;18500;43.618;1.474;2023-06-10T19:37:14;715.20;;;659.58;;
31974;SDS011;18500;43.618;1.474;2023-06-10T19:39:39;747.25;;;687.22;;
31974;SDS011;18500;43.618;1.474;2023-06-10T19:42:05;762.38;;;700.17;;
31974;SDS011;18500;43.618;1.474;2023-06-10T19:44:31;758.85;;;696.22;;
31974;SDS011;18500;43.618;1.474;2023-06-10T19:46:57;711.22;;;651.65;;
31974;SDS011;18500;43.618;1.474;2023-06-10T19:49:22;695.83;;;639.38;;
31974;SDS011;18500;43.618;1.474;2023-06-10T19:51:48;725.88;;;670.38;;
31974;SDS011;18500;43.618;1.474;2023-06-10T19:54:14;690.22;;;638.78;;
31974;SDS011;18500;43.618;1.474;2023-06-10T19:56:40;688.03;;;635.00;;
31974;SDS011;18500;43.618;1.474;2023-06-10T19:59:06;651.08;;;598.63;;
31974;SDS011;18500;43.618;1.474;2023-06-10T20:01:32;668.60;;;618.13;;
31974;SDS011;18500;43.618;1.474;2023-06-10T20:03:57;651.78;;;602.45;;
31974;SDS011;18500;43.618;1.474;2023-06-10T20:06:23;635.50;;;590.10;;
31974;SDS011;18500;43.618;1.474;2023-06-10T20:08:49;704.05;;;652.63;;
31974;SDS011;18500;43.618;1.474;2023-06-10T20:11:14;789.63;;;731.20;;
31974;SDS011;18500;43.618;1.474;2023-06-10T20:13:40;799.33;;;736.38;;
31974;SDS011;18500;43.618;1.474;2023-06-10T20:16:06;825.30;;;760.47;;
31974;SDS011;18500;43.618;1.474;2023-06-10T20:18:32;765.97;;;708.03;;
31974;SDS011;18500;43.618;1.474;2023-06-10T20:20:59;679.80;;;630.70;;
31974;SDS011;18500;43.618;1.474;2023-06-10T20:23:25;732.72;;;679.97;;
31974;SDS011;18500;43.618;1.474;2023-06-10T20:25:50;813.17;;;751.92;;
31974;SDS011;18500;43.618;1.474;2023-06-10T20:28:16;871.72;;;800.28;;
31974;SDS011;18500;43.618;1.474;2023-06-10T20:30:42;905.65;;;831.47;;
31974;SDS011;18500;43.618;1.474;2023-06-10T20:33:07;769.35;;;710.75;;
31974;SDS011;18500;43.618;1.474;2023-06-10T20:35:33;810.25;;;750.38;;
31974;SDS011;18500;43.618;1.474;2023-06-10T20:37:59;812.45;;;752.13;;
31974;SDS011;18500;43.618;1.474;2023-06-10T20:40:24;877.22;;;808.85;;
31974;SDS011;18500;43.618;1.474;2023-06-10T20:42:50;894.13;;;825.40;;
31974;SDS011;18500;43.618;1.474;2023-06-10T20:45:16;947.35;;;871.65;;
31974;SDS011;18500;43.618;1.474;2023-06-10T20:47:42;999.08;;;908.65;;
31974;SDS011;18500;43.618;1.474;2023-06-10T20:50:07;969.75;;;885.17;;
31974;SDS011;18500;43.618;1.474;2023-06-10T20:52:33;974.08;;;884.83;;
31974;SDS011;18500;43.618;1.474;2023-06-10T20:54:59;999.78;;;905.00;;
31974;SDS011;18500;43.618;1.474;2023-06-10T20:57:25;987.97;;;902.25;;
31974;SDS011;18500;43.618;1.474;2023-06-10T20:59:50;1050.95;;;951.10;;
31974;SDS011;18500;43.618;1.474;2023-06-10T21:02:16;960.08;;;880.25;;
31974;SDS011;18500;43.618;1.474;2023-06-10T21:04:42;1016.28;;;928.97;;
31974;SDS011;18500;43.618;1.474;2023-06-10T21:07:07;962.25;;;883.55;;
31974;SDS011;18500;43.618;1.474;2023-06-10T21:09:33;1008.70;;;921.50;;
31974;SDS011;18500;43.618;1.474;2023-06-10T21:11:59;1037.47;;;944.65;;
31974;SDS011;18500;43.618;1.474;2023-06-10T21:14:25;1029.22;;;938.88;;
31974;SDS011;18500;43.618;1.474;2023-06-10T21:16:50;1029.95;;;936.40;;
31974;SDS011;18500;43.618;1.474;2023-06-10T21:19:16;1075.47;;;973.28;;
31974;SDS011;18500;43.618;1.474;2023-06-10T21:21:42;1113.93;;;998.70;;
31974;SDS011;18500;43.618;1.474;2023-06-10T21:24:07;1130.40;;;999.90;;
31974;SDS011;18500;43.618;1.474;2023-06-10T21:26:33;1090.65;;;985.25;;
31974;SDS011;18500;43.618;1.474;2023-06-10T21:29:00;1126.47;;;998.85;;
31974;SDS011;18500;43.618;1.474;2023-06-10T21:31:26;1057.55;;;958.25;;
31974;SDS011;18500;43.618;1.474;2023-06-10T21:33:52;1076.45;;;972.67;;
31974;SDS011;18500;43.618;1.474;2023-06-10T21:36:18;1100.72;;;993.13;;
31974;SDS011;18500;43.618;1.474;2023-06-10T21:38:44;985.60;;;897.92;;
31974;SDS011;18500;43.618;1.474;2023-06-10T21:41:09;1019.17;;;929.33;;
31974;SDS011;18500;43.618;1.474;2023-06-10T21:43:36;1058.63;;;958.50;;
31974;SDS011;18500;43.618;1.474;2023-06-10T21:46:02;1061.70;;;960.20;;
31974;SDS011;18500;43.618;1.474;2023-06-10T21:48:28;1111.40;;;995.53;;
31974;SDS011;18500;43.618;1.474;2023-06-10T21:50:54;1164.00;;;999.90;;
31974;SDS011;18500;43.618;1.474;2023-06-10T21:53:20;1115.45;;;998.58;;
31974;SDS011;18500;43.618;1.474;2023-06-10T21:55:46;1083.95;;;971.45;;
31974;SDS011;18500;43.618;1.474;2023-06-10T21:58:11;1039.05;;;938.88;;
31974;SDS011;18500;43.618;1.474;2023-06-10T22:00:37;1052.10;;;955.30;;
